Apopka, FL

5:26 PM EDT on June 30, 2015 (GMT -0400)
RCACF | | Change Station
CLOSE
Current Station
Personal Weather Station
Location: Apopka, FL
Elevation: 72 ft
Nearby Weather Stations

Elev 72 ft 28.64 °N, 81.51 °W | Updated 6 seconds ago

Clear
Clear
93.2 °F
Feels Like 89 °F
N
10.5
Wind Variable Wind from West
Gusts 12.3 mph

Today
High -- | Low -- °F
--% Chance of Precip.
Yesterday
High -- | Low -- °F
Precip. -- in
6:31 AM 8:28 PM
Waxing Gibbous, 98% visible
Pressure 30.07 in
Visibility 10.0 miles
Clouds Few 6500 ft
Few 8500 ft
Heat Index 89 °F
Dew Point 31 °F
Humidity 11%
Rainfall 0.00 in
Snow Depth Not available.
UV 7 out of 12
Pollen .90 out of 12
Air Quality Not available.
Flu Activity Sporadic
METAR KORL 302053Z 26009KT 10SM FEW065 FEW085 34/21 A3006 RMK AO2 SLP181 T03390206 55008

More Conditions Fewer Conditions

Pressure 30.07 in
Visibility 10.0 miles
Clouds Few 6500 ft
Few 8500 ft
Heat Index 89 °F
Dew Point 31 °F
Humidity 11%
Rainfall 0.00 in
Snow Depth Not available.
UV 7 out of 12
Pollen .90 out of 12
Air Quality Not available.
Flu Activity Sporadic
METAR KORL 302053Z 26009KT 10SM FEW065 FEW085 34/21 A3006 RMK AO2 SLP181 T03390206 55008

More Conditions Fewer Conditions

Nowcast | as of 3:31 PM EDT on June 30, 2015

Drier in the lower to mid levels of the atmosphere was limiting convective coverage thus far this afternoon. Slightly higher moistuter levels across northern Brevard and Volusia counties and the chance for some thunderstorms to move southeast from North Florida will keep the risk for isolated showers and storms across these areas. Along the Treasure Coast...the East Coast sea breeze was beginning to move onshore across Martin and southern St. Lucie County but the drier airmass in this region should preclude much convective develop there into late afternoon. Temperatures were rising into the lower to mid 90s at 3 PM and will remain very warm through early evening. Additional details...including graphics are available online at: http://www.Srh.NOAA.Gov/mlb/blog.Php

×

10-Day Weather Forecast

Almanac

Astronomy

Jun. 30, 2015 Rise Set
Actual Time
Civil Twilight
Nautical Twilight
Astronomical Twilight
Moon
Length of Visible Light
Length of Day
Tomorrow will be .
, % of the Moon is Illuminated

Today's Extremes

State Highs State Lows

Community

WunderPhotos

Upload Photos

1,834,077 photos uploaded!

WunderBlogs® & News

Nearby

Air Quality

  Air Quality AQ Index Pollutant
Not available.

Snow Depth

Station Depth Elevation

Earthquake Activity

City Distance Mag. Time & Date
Minimum magnitude displayed is 2.5.

Coastal Water Temperatures

Place Temperature

Stations

Nearby Weather Stations

Station Location Temp. Windchill Dew Point Humidity Wind Precip. Elev Updated Type